sensor_id;sensor_type;location;lat;lon;timestamp;temperature;humidity
6106;DHT22;3083;51.508;7.966;2023-03-15T00:00:23;1.60;99.90
6106;DHT22;3083;51.508;7.966;2023-03-15T00:02:50;1.60;99.90
6106;DHT22;3083;51.508;7.966;2023-03-15T00:05:17;1.70;99.90
6106;DHT22;3083;51.508;7.966;2023-03-15T00:07:44;1.70;99.90
6106;DHT22;3083;51.508;7.966;2023-03-15T00:10:11;1.80;99.90
6106;DHT22;3083;51.508;7.966;2023-03-15T00:12:39;1.80;99.90
6106;DHT22;3083;51.508;7.966;2023-03-15T00:15:08;1.90;99.90
6106;DHT22;3083;51.508;7.966;2023-03-15T00:17:35;1.90;99.90
6106;DHT22;3083;51.508;7.966;2023-03-15T00:20:02;2.00;99.90
6106;DHT22;3083;51.508;7.966;2023-03-15T00:22:31;2.10;99.90
6106;DHT22;3083;51.508;7.966;2023-03-15T00:24:57;2.10;99.90
6106;DHT22;3083;51.508;7.966;2023-03-15T00:27:24;2.10;99.90
6106;DHT22;3083;51.508;7.966;2023-03-15T00:29:53;2.20;99.90
6106;DHT22;3083;51.508;7.966;2023-03-15T00:32:19;2.30;99.90
6106;DHT22;3083;51.508;7.966;2023-03-15T00:34:46;2.30;99.90
6106;DHT22;3083;51.508;7.966;2023-03-15T00:37:14;2.30;99.90
6106;DHT22;3083;51.508;7.966;2023-03-15T00:39:44;2.30;99.90
6106;DHT22;3083;51.508;7.966;2023-03-15T00:42:12;2.20;99.90
6106;DHT22;3083;51.508;7.966;2023-03-15T00:44:40;2.20;99.90
6106;DHT22;3083;51.508;7.966;2023-03-15T00:47:09;2.10;99.90
6106;DHT22;3083;51.508;7.966;2023-03-15T00:49:36;2.00;99.90
6106;DHT22;3083;51.508;7.966;2023-03-15T00:52:04;1.90;99.90
6106;DHT22;3083;51.508;7.966;2023-03-15T00:54:31;1.80;99.90
6106;DHT22;3083;51.508;7.966;2023-03-15T00:56:58;1.70;99.90
6106;DHT22;3083;51.508;7.966;2023-03-15T00:59:27;1.60;99.90
6106;DHT22;3083;51.508;7.966;2023-03-15T01:01:59;1.50;99.90
6106;DHT22;3083;51.508;7.966;2023-03-15T01:04:28;1.50;99.90
6106;DHT22;3083;51.508;7.966;2023-03-15T01:06:56;1.40;99.90
6106;DHT22;3083;51.508;7.966;2023-03-15T01:09:23;1.40;99.90
6106;DHT22;3083;51.508;7.966;2023-03-15T01:11:50;1.30;99.90
6106;DHT22;3083;51.508;7.966;2023-03-15T01:14:17;1.30;99.90
6106;DHT22;3083;51.508;7.966;2023-03-15T01:16:44;1.30;99.90
6106;DHT22;3083;51.508;7.966;2023-03-15T01:19:11;1.20;99.90
6106;DHT22;3083;51.508;7.966;2023-03-15T01:21:40;1.20;99.90
6106;DHT22;3083;51.508;7.966;2023-03-15T01:24:11;1.20;99.90
6106;DHT22;3083;51.508;7.966;2023-03-15T01:26:38;1.20;99.90
6106;DHT22;3083;51.508;7.966;2023-03-15T01:29:05;1.20;99.90
6106;DHT22;3083;51.508;7.966;2023-03-15T01:31:32;1.20;99.90
6106;DHT22;3083;51.508;7.966;2023-03-15T01:33:59;1.20;99.90
6106;DHT22;3083;51.508;7.966;2023-03-15T01:36:26;1.20;99.90
6106;DHT22;3083;51.508;7.966;2023-03-15T01:38:55;1.20;99.90
6106;DHT22;3083;51.508;7.966;2023-03-15T01:41:22;1.20;99.90
6106;DHT22;3083;51.508;7.966;2023-03-15T01:43:50;1.20;99.90
6106;DHT22;3083;51.508;7.966;2023-03-15T01:46:21;1.20;99.90
6106;DHT22;3083;51.508;7.966;2023-03-15T01:48:52;1.30;99.90
6106;DHT22;3083;51.508;7.966;2023-03-15T01:51:24;1.30;99.90
6106;DHT22;3083;51.508;7.966;2023-03-15T01:53:57;1.30;99.90
6106;DHT22;3083;51.508;7.966;2023-03-15T01:56:27;1.30;99.90
6106;DHT22;3083;51.508;7.966;2023-03-15T01:58:57;1.30;99.90
6106;DHT22;3083;51.508;7.966;2023-03-15T02:01:24;1.30;99.90
6106;DHT22;3083;51.508;7.966;2023-03-15T02:03:54;1.40;99.90
6106;DHT22;3083;51.508;7.966;2023-03-15T02:06:22;1.40;99.90
6106;DHT22;3083;51.508;7.966;2023-03-15T02:08:52;1.50;99.90
6106;DHT22;3083;51.508;7.966;2023-03-15T02:11:25;1.50;99.90
6106;DHT22;3083;51.508;7.966;2023-03-15T02:13:54;1.50;99.90
6106;DHT22;3083;51.508;7.966;2023-03-15T02:16:22;1.60;99.90
6106;DHT22;3083;51.508;7.966;2023-03-15T02:18:50;1.60;99.90
6106;DHT22;3083;51.508;7.966;2023-03-15T02:21:24;1.60;99.90
6106;DHT22;3083;51.508;7.966;2023-03-15T02:24:01;1.60;99.90
6106;DHT22;3083;51.508;7.966;2023-03-15T02:26:39;1.70;99.90
6106;DHT22;3083;51.508;7.966;2023-03-15T02:29:09;1.70;99.90
6106;DHT22;3083;51.508;7.966;2023-03-15T02:31:36;1.70;99.90
6106;DHT22;3083;51.508;7.966;2023-03-15T02:34:05;1.80;99.90
6106;DHT22;3083;51.508;7.966;2023-03-15T02:36:33;1.80;99.90
6106;DHT22;3083;51.508;7.966;2023-03-15T02:39:00;1.80;99.90
6106;DHT22;3083;51.508;7.966;2023-03-15T02:41:30;1.80;99.90
6106;DHT22;3083;51.508;7.966;2023-03-15T02:44:01;1.80;99.90
6106;DHT22;3083;51.508;7.966;2023-03-15T02:46:30;1.80;99.90
6106;DHT22;3083;51.508;7.966;2023-03-15T02:48:58;1.90;99.90
6106;DHT22;3083;51.508;7.966;2023-03-15T02:51:28;1.90;99.90
6106;DHT22;3083;51.508;7.966;2023-03-15T02:53:55;1.90;99.90
6106;DHT22;3083;51.508;7.966;2023-03-15T02:56:22;1.90;99.90
6106;DHT22;3083;51.508;7.966;2023-03-15T02:58:49;1.90;99.90
6106;DHT22;3083;51.508;7.966;2023-03-15T03:01:17;1.90;99.90
6106;DHT22;3083;51.508;7.966;2023-03-15T03:03:46;1.90;99.90
6106;DHT22;3083;51.508;7.966;2023-03-15T03:06:15;1.90;99.90
6106;DHT22;3083;51.508;7.966;2023-03-15T03:08:42;1.90;99.90
6106;DHT22;3083;51.508;7.966;2023-03-15T03:11:12;2.00;99.90
6106;DHT22;3083;51.508;7.966;2023-03-15T03:13:39;1.90;99.90
6106;DHT22;3083;51.508;7.966;2023-03-15T03:16:06;2.00;99.90
6106;DHT22;3083;51.508;7.966;2023-03-15T03:18:33;2.00;99.90
6106;DHT22;3083;51.508;7.966;2023-03-15T03:21:04;2.00;99.90
6106;DHT22;3083;51.508;7.966;2023-03-15T03:23:32;2.00;99.90
6106;DHT22;3083;51.508;7.966;2023-03-15T03:26:00;2.00;99.90
6106;DHT22;3083;51.508;7.966;2023-03-15T03:28:29;2.00;99.90
6106;DHT22;3083;51.508;7.966;2023-03-15T03:30:56;2.00;99.90
6106;DHT22;3083;51.508;7.966;2023-03-15T03:33:24;2.00;99.90
6106;DHT22;3083;51.508;7.966;2023-03-15T03:35:51;2.00;99.90
6106;DHT22;3083;51.508;7.966;2023-03-15T03:38:20;2.00;99.90
6106;DHT22;3083;51.508;7.966;2023-03-15T03:40:47;2.00;99.90
6106;DHT22;3083;51.508;7.966;2023-03-15T03:43:13;2.00;99.90
6106;DHT22;3083;51.508;7.966;2023-03-15T03:45:40;2.00;99.90
6106;DHT22;3083;51.508;7.966;2023-03-15T03:48:07;2.00;99.90
6106;DHT22;3083;51.508;7.966;2023-03-15T03:50:34;2.00;99.90
6106;DHT22;3083;51.508;7.966;2023-03-15T03:53:01;2.00;99.90
6106;DHT22;3083;51.508;7.966;2023-03-15T03:55:29;2.00;99.90
6106;DHT22;3083;51.508;7.966;2023-03-15T03:57:58;2.00;99.90
6106;DHT22;3083;51.508;7.966;2023-03-15T04:00:25;2.00;99.90
6106;DHT22;3083;51.508;7.966;2023-03-15T04:02:52;2.00;99.90
6106;DHT22;3083;51.508;7.966;2023-03-15T04:05:19;2.00;99.90
6106;DHT22;3083;51.508;7.966;2023-03-15T04:07:46;2.00;99.90
6106;DHT22;3083;51.508;7.966;2023-03-15T04:10:13;2.00;99.90
6106;DHT22;3083;51.508;7.966;2023-03-15T04:12:43;2.00;99.90
6106;DHT22;3083;51.508;7.966;2023-03-15T04:15:10;2.10;99.90
6106;DHT22;3083;51.508;7.966;2023-03-15T04:17:37;2.00;99.90
6106;DHT22;3083;51.508;7.966;2023-03-15T04:20:05;2.10;99.90
6106;DHT22;3083;51.508;7.966;2023-03-15T04:22:35;2.00;99.90
6106;DHT22;3083;51.508;7.966;2023-03-15T04:25:02;2.00;99.90
6106;DHT22;3083;51.508;7.966;2023-03-15T04:27:29;2.00;99.90
6106;DHT22;3083;51.508;7.966;2023-03-15T04:29:58;2.00;99.90
6106;DHT22;3083;51.508;7.966;2023-03-15T04:32:29;2.00;99.90
6106;DHT22;3083;51.508;7.966;2023-03-15T04:34:56;2.00;99.90
6106;DHT22;3083;51.508;7.966;2023-03-15T04:37:23;2.00;99.90
6106;DHT22;3083;51.508;7.966;2023-03-15T04:39:50;1.90;99.90
6106;DHT22;3083;51.508;7.966;2023-03-15T04:42:17;1.90;99.90
6106;DHT22;3083;51.508;7.966;2023-03-15T04:44:44;1.90;99.90
6106;DHT22;3083;51.508;7.966;2023-03-15T04:47:12;1.80;99.90
6106;DHT22;3083;51.508;7.966;2023-03-15T04:49:39;1.80;99.90
6106;DHT22;3083;51.508;7.966;2023-03-15T04:52:06;1.80;99.90
6106;DHT22;3083;51.508;7.966;2023-03-15T04:54:33;1.80;99.90
6106;DHT22;3083;51.508;7.966;2023-03-15T04:57:00;1.80;99.90
6106;DHT22;3083;51.508;7.966;2023-03-15T04:59:27;1.80;99.90
6106;DHT22;3083;51.508;7.966;2023-03-15T05:01:55;1.80;99.90
6106;DHT22;3083;51.508;7.966;2023-03-15T05:04:23;1.90;99.90
6106;DHT22;3083;51.508;7.966;2023-03-15T05:06:50;1.90;99.90
6106;DHT22;3083;51.508;7.966;2023-03-15T05:09:17;1.90;99.90
6106;DHT22;3083;51.508;7.966;2023-03-15T05:11:44;1.90;99.90
6106;DHT22;3083;51.508;7.966;2023-03-15T05:14:11;2.00;99.90
6106;DHT22;3083;51.508;7.966;2023-03-15T05:16:38;1.90;99.90
6106;DHT22;3083;51.508;7.966;2023-03-15T05:19:05;2.00;99.90
6106;DHT22;3083;51.508;7.966;2023-03-15T05:21:33;2.00;99.90
6106;DHT22;3083;51.508;7.966;2023-03-15T05:24:00;2.00;99.90
6106;DHT22;3083;51.508;7.966;2023-03-15T05:26:28;2.00;99.90
6106;DHT22;3083;51.508;7.966;2023-03-15T05:28:55;2.00;99.90
6106;DHT22;3083;51.508;7.966;2023-03-15T05:31:22;2.00;99.90
6106;DHT22;3083;51.508;7.966;2023-03-15T05:33:49;2.00;99.90
6106;DHT22;3083;51.508;7.966;2023-03-15T05:36:19;2.00;99.90
6106;DHT22;3083;51.508;7.966;2023-03-15T05:38:47;2.00;99.90
6106;DHT22;3083;51.508;7.966;2023-03-15T05:41:15;2.00;99.90
6106;DHT22;3083;51.508;7.966;2023-03-15T05:43:42;2.00;99.90
6106;DHT22;3083;51.508;7.966;2023-03-15T05:46:09;2.00;99.90
6106;DHT22;3083;51.508;7.966;2023-03-15T05:48:36;2.00;99.90
6106;DHT22;3083;51.508;7.966;2023-03-15T05:51:03;2.00;99.90
6106;DHT22;3083;51.508;7.966;2023-03-15T05:53:30;2.00;99.90
6106;DHT22;3083;51.508;7.966;2023-03-15T05:55:58;1.90;99.90
6106;DHT22;3083;51.508;7.966;2023-03-15T05:58:25;1.90;99.90
6106;DHT22;3083;51.508;7.966;2023-03-15T06:00:52;1.90;99.90
6106;DHT22;3083;51.508;7.966;2023-03-15T06:03:19;1.90;99.90
6106;DHT22;3083;51.508;7.966;2023-03-15T06:05:46;1.90;99.90
6106;DHT22;3083;51.508;7.966;2023-03-15T06:08:13;1.90;99.90
6106;DHT22;3083;51.508;7.966;2023-03-15T06:10:40;1.90;99.90
6106;DHT22;3083;51.508;7.966;2023-03-15T06:13:08;1.90;99.90
6106;DHT22;3083;51.508;7.966;2023-03-15T06:15:35;1.90;99.90
6106;DHT22;3083;51.508;7.966;2023-03-15T06:18:02;1.90;99.90
6106;DHT22;3083;51.508;7.966;2023-03-15T06:20:29;1.90;99.90
6106;DHT22;3083;51.508;7.966;2023-03-15T06:22:56;1.90;99.90
6106;DHT22;3083;51.508;7.966;2023-03-15T06:25:23;1.90;99.90
6106;DHT22;3083;51.508;7.966;2023-03-15T06:27:50;1.90;99.90
6106;DHT22;3083;51.508;7.966;2023-03-15T06:30:19;2.00;99.90
6106;DHT22;3083;51.508;7.966;2023-03-15T06:32:46;2.10;99.90
6106;DHT22;3083;51.508;7.966;2023-03-15T06:35:13;2.10;99.90
6106;DHT22;3083;51.508;7.966;2023-03-15T06:37:40;2.10;99.90
6106;DHT22;3083;51.508;7.966;2023-03-15T06:40:08;2.10;99.90
6106;DHT22;3083;51.508;7.966;2023-03-15T06:42:36;2.10;99.90
6106;DHT22;3083;51.508;7.966;2023-03-15T06:45:04;2.20;99.90
6106;DHT22;3083;51.508;7.966;2023-03-15T06:47:34;2.20;99.90
6106;DHT22;3083;51.508;7.966;2023-03-15T06:50:01;2.20;99.90
6106;DHT22;3083;51.508;7.966;2023-03-15T06:52:28;2.20;99.90
6106;DHT22;3083;51.508;7.966;2023-03-15T06:54:55;2.30;99.90
6106;DHT22;3083;51.508;7.966;2023-03-15T06:57:22;2.30;99.90
6106;DHT22;3083;51.508;7.966;2023-03-15T06:59:49;2.30;99.90
6106;DHT22;3083;51.508;7.966;2023-03-15T07:02:18;2.30;99.90
6106;DHT22;3083;51.508;7.966;2023-03-15T07:04:46;2.40;99.90
6106;DHT22;3083;51.508;7.966;2023-03-15T07:07:14;2.40;99.90
6106;DHT22;3083;51.508;7.966;2023-03-15T07:09:41;2.40;99.90
6106;DHT22;3083;51.508;7.966;2023-03-15T07:35:36;3.40;99.90
6106;DHT22;3083;51.508;7.966;2023-03-15T07:38:03;3.60;99.90
6106;DHT22;3083;51.508;7.966;2023-03-15T07:40:30;3.70;99.90
6106;DHT22;3083;51.508;7.966;2023-03-15T07:42:57;3.80;99.90
6106;DHT22;3083;51.508;7.966;2023-03-15T07:45:24;3.80;99.90
6106;DHT22;3083;51.508;7.966;2023-03-15T07:47:50;3.70;99.90
6106;DHT22;3083;51.508;7.966;2023-03-15T07:50:17;3.70;99.90
6106;DHT22;3083;51.508;7.966;2023-03-15T07:52:46;3.70;99.90
6106;DHT22;3083;51.508;7.966;2023-03-15T07:55:12;3.70;99.90
6106;DHT22;3083;51.508;7.966;2023-03-15T07:57:39;3.70;99.90
6106;DHT22;3083;51.508;7.966;2023-03-15T08:00:07;3.70;99.90
6106;DHT22;3083;51.508;7.966;2023-03-15T08:02:36;3.70;99.90
6106;DHT22;3083;51.508;7.966;2023-03-15T08:05:03;3.70;99.90
6106;DHT22;3083;51.508;7.966;2023-03-15T08:07:30;3.60;99.90
6106;DHT22;3083;51.508;7.966;2023-03-15T08:09:58;3.60;99.90
6106;DHT22;3083;51.508;7.966;2023-03-15T08:12:26;3.70;99.90
6106;DHT22;3083;51.508;7.966;2023-03-15T08:14:54;3.70;99.90
6106;DHT22;3083;51.508;7.966;2023-03-15T08:17:21;3.80;99.90
6106;DHT22;3083;51.508;7.966;2023-03-15T08:19:48;3.80;99.90
6106;DHT22;3083;51.508;7.966;2023-03-15T08:22:15;3.80;99.90
6106;DHT22;3083;51.508;7.966;2023-03-15T08:24:42;3.80;99.90
6106;DHT22;3083;51.508;7.966;2023-03-15T08:27:11;3.80;99.90
6106;DHT22;3083;51.508;7.966;2023-03-15T08:29:38;3.90;99.90
6106;DHT22;3083;51.508;7.966;2023-03-15T08:32:06;4.30;99.90
6106;DHT22;3083;51.508;7.966;2023-03-15T08:34:33;4.90;99.90
6106;DHT22;3083;51.508;7.966;2023-03-15T08:37:00;5.20;99.90
6106;DHT22;3083;51.508;7.966;2023-03-15T08:39:27;5.30;99.90
6106;DHT22;3083;51.508;7.966;2023-03-15T08:41:54;5.10;99.90
6106;DHT22;3083;51.508;7.966;2023-03-15T08:44:22;5.00;99.90
6106;DHT22;3083;51.508;7.966;2023-03-15T08:46:49;5.00;99.90
6106;DHT22;3083;51.508;7.966;2023-03-15T08:49:16;5.30;99.90
6106;DHT22;3083;51.508;7.966;2023-03-15T08:51:42;5.70;99.90
6106;DHT22;3083;51.508;7.966;2023-03-15T08:54:09;6.10;99.90
6106;DHT22;3083;51.508;7.966;2023-03-15T08:56:38;6.30;99.90
6106;DHT22;3083;51.508;7.966;2023-03-15T08:59:05;6.40;99.90
6106;DHT22;3083;51.508;7.966;2023-03-15T09:01:34;6.20;99.90
6106;DHT22;3083;51.508;7.966;2023-03-15T09:04:01;6.10;99.90
6106;DHT22;3083;51.508;7.966;2023-03-15T09:06:28;6.10;99.90
6106;DHT22;3083;51.508;7.966;2023-03-15T09:08:55;5.90;99.90
6106;DHT22;3083;51.508;7.966;2023-03-15T09:11:22;5.60;99.90
6106;DHT22;3083;51.508;7.966;2023-03-15T09:13:49;5.40;99.90
6106;DHT22;3083;51.508;7.966;2023-03-15T09:16:16;5.30;99.90
6106;DHT22;3083;51.508;7.966;2023-03-15T09:18:45;5.20;99.90
6106;DHT22;3083;51.508;7.966;2023-03-15T09:21:12;5.10;99.90
6106;DHT22;3083;51.508;7.966;2023-03-15T09:23:38;5.10;99.90
6106;DHT22;3083;51.508;7.966;2023-03-15T09:26:05;5.10;99.90
6106;DHT22;3083;51.508;7.966;2023-03-15T09:28:32;5.00;99.90
6106;DHT22;3083;51.508;7.966;2023-03-15T09:31:03;4.80;99.90
6106;DHT22;3083;51.508;7.966;2023-03-15T09:33:30;4.90;99.90
6106;DHT22;3083;51.508;7.966;2023-03-15T09:35:59;5.20;99.90
6106;DHT22;3083;51.508;7.966;2023-03-15T09:38:26;5.70;99.90
6106;DHT22;3083;51.508;7.966;2023-03-15T09:40:56;6.10;99.90
6106;DHT22;3083;51.508;7.966;2023-03-15T09:43:58;6.70;99.90
6106;DHT22;3083;51.508;7.966;2023-03-15T09:46:29;7.30;99.90
6106;DHT22;3083;51.508;7.966;2023-03-15T09:49:02;7.70;99.90
6106;DHT22;3083;51.508;7.966;2023-03-15T09:51:38;7.80;99.90
6106;DHT22;3083;51.508;7.966;2023-03-15T09:54:10;7.60;99.90
6106;DHT22;3083;51.508;7.966;2023-03-15T09:56:41;7.30;99.90
6106;DHT22;3083;51.508;7.966;2023-03-15T09:59:10;7.10;99.90
6106;DHT22;3083;51.508;7.966;2023-03-15T10:01:40;7.10;99.90
6106;DHT22;3083;51.508;7.966;2023-03-15T10:04:11;7.30;99.90
6106;DHT22;3083;51.508;7.966;2023-03-15T10:06:44;7.30;99.90
6106;DHT22;3083;51.508;7.966;2023-03-15T10:09:17;7.50;99.90
6106;DHT22;3083;51.508;7.966;2023-03-15T10:11:48;7.70;99.90
6106;DHT22;3083;51.508;7.966;2023-03-15T10:14:27;8.00;99.90
6106;DHT22;3083;51.508;7.966;2023-03-15T10:16:58;8.30;99.90
6106;DHT22;3083;51.508;7.966;2023-03-15T10:19:33;8.50;99.90
6106;DHT22;3083;51.508;7.966;2023-03-15T10:22:10;8.60;99.90
6106;DHT22;3083;51.508;7.966;2023-03-15T10:24:43;8.70;99.90
6106;DHT22;3083;51.508;7.966;2023-03-15T10:27:15;8.60;99.90
6106;DHT22;3083;51.508;7.966;2023-03-15T10:29:46;8.60;99.90
6106;DHT22;3083;51.508;7.966;2023-03-15T10:32:15;8.80;99.90
6106;DHT22;3083;51.508;7.966;2023-03-15T10:34:46;9.00;99.90
6106;DHT22;3083;51.508;7.966;2023-03-15T10:37:15;9.20;99.90
6106;DHT22;3083;51.508;7.966;2023-03-15T10:39:44;9.40;99.90
6106;DHT22;3083;51.508;7.966;2023-03-15T10:42:26;9.50;99.90
6106;DHT22;3083;51.508;7.966;2023-03-15T10:44:54;9.60;99.90
6106;DHT22;3083;51.508;7.966;2023-03-15T10:47:21;9.30;99.90
6106;DHT22;3083;51.508;7.966;2023-03-15T10:49:54;8.80;99.90
6106;DHT22;3083;51.508;7.966;2023-03-15T10:52:32;8.60;99.90
6106;DHT22;3083;51.508;7.966;2023-03-15T10:55:02;8.60;99.90
6106;DHT22;3083;51.508;7.966;2023-03-15T10:57:33;8.70;99.90
6106;DHT22;3083;51.508;7.966;2023-03-15T11:00:06;9.00;99.90
6106;DHT22;3083;51.508;7.966;2023-03-15T11:02:35;9.10;99.90
6106;DHT22;3083;51.508;7.966;2023-03-15T11:05:09;9.40;99.90
6106;DHT22;3083;51.508;7.966;2023-03-15T11:07:53;9.60;99.90
6106;DHT22;3083;51.508;7.966;2023-03-15T11:10:21;9.50;99.90
6106;DHT22;3083;51.508;7.966;2023-03-15T11:12:50;9.50;99.90
6106;DHT22;3083;51.508;7.966;2023-03-15T11:15:34;9.40;99.90
6106;DHT22;3083;51.508;7.966;2023-03-15T11:18:01;9.10;99.90
6106;DHT22;3083;51.508;7.966;2023-03-15T11:20:30;8.70;99.90
6106;DHT22;3083;51.508;7.966;2023-03-15T11:23:12;8.60;99.90
6106;DHT22;3083;51.508;7.966;2023-03-15T11:25:39;8.70;99.90
6106;DHT22;3083;51.508;7.966;2023-03-15T11:28:14;8.70;99.90
6106;DHT22;3083;51.508;7.966;2023-03-15T11:30:41;8.50;99.90
6106;DHT22;3083;51.508;7.966;2023-03-15T11:33:18;8.40;99.90
6106;DHT22;3083;51.508;7.966;2023-03-15T11:35:48;8.30;99.90
6106;DHT22;3083;51.508;7.966;2023-03-15T11:38:23;8.40;99.90
6106;DHT22;3083;51.508;7.966;2023-03-15T11:40:53;8.70;99.90
6106;DHT22;3083;51.508;7.966;2023-03-15T11:43:24;8.90;99.90
6106;DHT22;3083;51.508;7.966;2023-03-15T11:45:56;8.90;99.90
6106;DHT22;3083;51.508;7.966;2023-03-15T11:48:26;8.70;99.90
6106;DHT22;3083;51.508;7.966;2023-03-15T11:50:54;8.40;99.90
6106;DHT22;3083;51.508;7.966;2023-03-15T11:53:28;8.10;99.90
6106;DHT22;3083;51.508;7.966;2023-03-15T11:56:07;8.10;99.90
6106;DHT22;3083;51.508;7.966;2023-03-15T11:58:59;8.20;99.90
6106;DHT22;3083;51.508;7.966;2023-03-15T12:01:29;8.40;99.90
6106;DHT22;3083;51.508;7.966;2023-03-15T12:06:57;8.70;99.90
6106;DHT22;3083;51.508;7.966;2023-03-15T12:09:49;8.60;99.90
6106;DHT22;3083;51.508;7.966;2023-03-15T12:12:36;8.60;99.90
6106;DHT22;3083;51.508;7.966;2023-03-15T12:15:41;8.70;99.90
6106;DHT22;3083;51.508;7.966;2023-03-15T12:18:15;8.80;99.90
6106;DHT22;3083;51.508;7.966;2023-03-15T12:20:49;8.90;99.90
6106;DHT22;3083;51.508;7.966;2023-03-15T12:23:28;8.90;99.90
6106;DHT22;3083;51.508;7.966;2023-03-15T12:26:05;8.80;99.90
6106;DHT22;3083;51.508;7.966;2023-03-15T12:28:34;8.60;99.90
6106;DHT22;3083;51.508;7.966;2023-03-15T12:31:04;8.60;99.90
6106;DHT22;3083;51.508;7.966;2023-03-15T12:33:42;8.50;99.90
6106;DHT22;3083;51.508;7.966;2023-03-15T12:36:16;8.60;99.90
6106;DHT22;3083;51.508;7.966;2023-03-15T12:38:59;8.80;99.90
6106;DHT22;3083;51.508;7.966;2023-03-15T12:41:37;9.00;99.90
6106;DHT22;3083;51.508;7.966;2023-03-15T12:44:36;9.00;99.90
6106;DHT22;3083;51.508;7.966;2023-03-15T12:47:05;9.00;99.90
6106;DHT22;3083;51.508;7.966;2023-03-15T12:49:40;9.00;99.90
6106;DHT22;3083;51.508;7.966;2023-03-15T12:52:30;8.90;99.90
6106;DHT22;3083;51.508;7.966;2023-03-15T12:55:05;8.70;99.90
6106;DHT22;3083;51.508;7.966;2023-03-15T12:57:44;8.70;99.90
6106;DHT22;3083;51.508;7.966;2023-03-15T13:00:15;8.90;99.90
6106;DHT22;3083;51.508;7.966;2023-03-15T13:02:44;9.00;99.90
6106;DHT22;3083;51.508;7.966;2023-03-15T13:05:17;9.20;99.90
6106;DHT22;3083;51.508;7.966;2023-03-15T13:07:52;9.30;99.90
6106;DHT22;3083;51.508;7.966;2023-03-15T13:10:36;9.40;99.90
6106;DHT22;3083;51.508;7.966;2023-03-15T13:13:19;9.20;99.90
6106;DHT22;3083;51.508;7.966;2023-03-15T13:16:00;9.10;99.90
6106;DHT22;3083;51.508;7.966;2023-03-15T13:18:35;9.20;99.90
6106;DHT22;3083;51.508;7.966;2023-03-15T13:21:14;9.20;99.90
6106;DHT22;3083;51.508;7.966;2023-03-15T13:23:49;9.30;99.90
6106;DHT22;3083;51.508;7.966;2023-03-15T13:26:26;9.30;99.90
6106;DHT22;3083;51.508;7.966;2023-03-15T13:29:00;9.20;99.90
6106;DHT22;3083;51.508;7.966;2023-03-15T13:31:29;9.00;99.90
6106;DHT22;3083;51.508;7.966;2023-03-15T13:34:02;8.80;99.90
6106;DHT22;3083;51.508;7.966;2023-03-15T13:36:40;8.70;99.90
6106;DHT22;3083;51.508;7.966;2023-03-15T13:39:13;8.70;99.90
6106;DHT22;3083;51.508;7.966;2023-03-15T13:41:41;8.90;99.90
6106;DHT22;3083;51.508;7.966;2023-03-15T13:44:16;8.90;99.90
6106;DHT22;3083;51.508;7.966;2023-03-15T13:46:46;9.00;99.90
6106;DHT22;3083;51.508;7.966;2023-03-15T13:49:13;8.90;99.90
6106;DHT22;3083;51.508;7.966;2023-03-15T13:51:41;8.90;99.90
6106;DHT22;3083;51.508;7.966;2023-03-15T13:54:12;9.00;99.90
6106;DHT22;3083;51.508;7.966;2023-03-15T13:56:51;9.00;99.90
6106;DHT22;3083;51.508;7.966;2023-03-15T13:59:21;9.00;99.90
6106;DHT22;3083;51.508;7.966;2023-03-15T14:01:49;9.10;99.90
6106;DHT22;3083;51.508;7.966;2023-03-15T14:04:19;9.30;99.90
6106;DHT22;3083;51.508;7.966;2023-03-15T14:06:47;9.30;99.90
6106;DHT22;3083;51.508;7.966;2023-03-15T14:09:19;9.20;99.90
6106;DHT22;3083;51.508;7.966;2023-03-15T14:12:00;9.10;99.90
6106;DHT22;3083;51.508;7.966;2023-03-15T14:14:30;8.90;99.90
6106;DHT22;3083;51.508;7.966;2023-03-15T14:16:58;8.80;99.90
6106;DHT22;3083;51.508;7.966;2023-03-15T14:19:28;8.90;99.90
6106;DHT22;3083;51.508;7.966;2023-03-15T14:21:57;9.00;99.90
6106;DHT22;3083;51.508;7.966;2023-03-15T14:24:28;9.10;99.90
6106;DHT22;3083;51.508;7.966;2023-03-15T14:26:57;9.20;99.90
6106;DHT22;3083;51.508;7.966;2023-03-15T14:29:29;9.40;99.90
6106;DHT22;3083;51.508;7.966;2023-03-15T14:31:59;9.50;99.90
6106;DHT22;3083;51.508;7.966;2023-03-15T14:34:32;9.50;99.90
6106;DHT22;3083;51.508;7.966;2023-03-15T14:37:00;9.40;99.90
6106;DHT22;3083;51.508;7.966;2023-03-15T14:39:36;9.40;99.90
6106;DHT22;3083;51.508;7.966;2023-03-15T14:42:04;9.40;99.90
6106;DHT22;3083;51.508;7.966;2023-03-15T14:44:32;9.30;99.90
6106;DHT22;3083;51.508;7.966;2023-03-15T14:46:59;9.20;99.90
6106;DHT22;3083;51.508;7.966;2023-03-15T14:49:27;9.20;99.90
6106;DHT22;3083;51.508;7.966;2023-03-15T14:51:59;9.00;99.90
6106;DHT22;3083;51.508;7.966;2023-03-15T14:54:27;8.80;99.90
6106;DHT22;3083;51.508;7.966;2023-03-15T14:56:54;8.60;99.90
6106;DHT22;3083;51.508;7.966;2023-03-15T14:59:21;8.50;99.90
6106;DHT22;3083;51.508;7.966;2023-03-15T15:01:52;8.40;99.90
6106;DHT22;3083;51.508;7.966;2023-03-15T15:04:20;8.20;99.90
6106;DHT22;3083;51.508;7.966;2023-03-15T15:06:47;8.00;99.90
6106;DHT22;3083;51.508;7.966;2023-03-15T15:09:21;7.80;99.90
6106;DHT22;3083;51.508;7.966;2023-03-15T15:11:49;7.70;99.90
6106;DHT22;3083;51.508;7.966;2023-03-15T15:14:17;7.60;99.90
6106;DHT22;3083;51.508;7.966;2023-03-15T15:16:44;7.50;99.90
6106;DHT22;3083;51.508;7.966;2023-03-15T15:19:13;7.40;99.90
6106;DHT22;3083;51.508;7.966;2023-03-15T15:21:41;7.30;99.90
6106;DHT22;3083;51.508;7.966;2023-03-15T15:24:13;7.30;99.90
6106;DHT22;3083;51.508;7.966;2023-03-15T15:26:41;7.30;99.90
6106;DHT22;3083;51.508;7.966;2023-03-15T15:29:11;7.20;99.90
6106;DHT22;3083;51.508;7.966;2023-03-15T15:31:39;7.20;99.90
6106;DHT22;3083;51.508;7.966;2023-03-15T15:34:06;7.10;99.90
6106;DHT22;3083;51.508;7.966;2023-03-15T15:36:37;7.00;99.90
6106;DHT22;3083;51.508;7.966;2023-03-15T15:39:15;6.90;99.90
6106;DHT22;3083;51.508;7.966;2023-03-15T15:41:43;6.80;99.90
6106;DHT22;3083;51.508;7.966;2023-03-15T15:44:14;6.80;99.90
6106;DHT22;3083;51.508;7.966;2023-03-15T15:46:41;6.80;99.90
6106;DHT22;3083;51.508;7.966;2023-03-15T15:49:08;6.70;99.90
6106;DHT22;3083;51.508;7.966;2023-03-15T15:51:38;6.70;99.90
6106;DHT22;3083;51.508;7.966;2023-03-15T15:54:12;6.70;99.90
6106;DHT22;3083;51.508;7.966;2023-03-15T15:56:44;6.70;99.90
6106;DHT22;3083;51.508;7.966;2023-03-15T15:59:14;6.70;99.90
6106;DHT22;3083;51.508;7.966;2023-03-15T16:01:41;6.70;99.90
6106;DHT22;3083;51.508;7.966;2023-03-15T16:04:08;6.60;99.90
6106;DHT22;3083;51.508;7.966;2023-03-15T16:06:37;6.50;99.90
6106;DHT22;3083;51.508;7.966;2023-03-15T16:09:05;6.50;99.90
6106;DHT22;3083;51.508;7.966;2023-03-15T16:11:33;6.40;99.90
6106;DHT22;3083;51.508;7.966;2023-03-15T16:14:00;6.30;99.90
6106;DHT22;3083;51.508;7.966;2023-03-15T16:16:27;6.30;99.90
6106;DHT22;3083;51.508;7.966;2023-03-15T16:18:54;6.30;99.90
6106;DHT22;3083;51.508;7.966;2023-03-15T16:21:28;6.30;99.90
6106;DHT22;3083;51.508;7.966;2023-03-15T16:24:03;6.30;99.90
6106;DHT22;3083;51.508;7.966;2023-03-15T16:26:32;6.30;99.90
6106;DHT22;3083;51.508;7.966;2023-03-15T16:29:00;6.30;99.90
6106;DHT22;3083;51.508;7.966;2023-03-15T16:31:27;6.20;99.90
6106;DHT22;3083;51.508;7.966;2023-03-15T16:33:54;6.20;99.90
6106;DHT22;3083;51.508;7.966;2023-03-15T16:36:21;6.10;99.90
6106;DHT22;3083;51.508;7.966;2023-03-15T16:38:49;6.10;99.90
6106;DHT22;3083;51.508;7.966;2023-03-15T16:41:18;6.00;99.90
6106;DHT22;3083;51.508;7.966;2023-03-15T16:43:45;5.90;99.90
6106;DHT22;3083;51.508;7.966;2023-03-15T16:46:14;5.80;99.90
6106;DHT22;3083;51.508;7.966;2023-03-15T16:48:42;5.60;99.90
6106;DHT22;3083;51.508;7.966;2023-03-15T16:51:11;5.50;99.90
6106;DHT22;3083;51.508;7.966;2023-03-15T16:53:39;5.30;99.90
6106;DHT22;3083;51.508;7.966;2023-03-15T16:56:10;5.20;99.90
6106;DHT22;3083;51.508;7.966;2023-03-15T16:58:39;5.10;99.90